Ye Chi — VRFV6 — position and weather

sailwx.info

Track history (hours):
 
Tides and Currents Weather Stations Pressure Air Temp Water Temp Dewpoint Dewpoint Depression Visibility Wind Speed Wind Dir Waves Ship Positions

Ye Chi

Last reported at 2018-May-21 09:22 UTC. Time now 2018-May-23 16:44 UTC.
Position N 23°01' E 117°35'.

Length 186 m; draft 10.4 m.

Type: Tanker. MMSI: 477621300.

Date/timePositionNaut miles runAvg speedWind from/ knotsBaromVisibWave heightAir tempDewpointWater temp
2018-May-21 09:22N 23°01' E 117°35'513.1
2018-May-21 08:59N 23°05' E 117°39'613.0
2018-May-21 08:30N 23°09' E 117°45'612.8
2018-May-21 08:00N 23°13' E 117°50'1112.5
2018-May-21 07:07N 23°21' E 117°58'212.1
2018-May-21 06:59N 23°22' E 117°59'612.1
2018-May-21 06:30N 23°27' E 118°04'612.2
2018-May-21 06:00N 23°31' E 118°08'812.2
2018-May-21 05:22N 23°37' E 118°14'512.4
2018-May-21 04:56N 23°41' E 118°18'612.5
2018-May-21 04:30N 23°44' E 118°23'612.4
2018-May-21 04:00N 23°48' E 118°28'2012.5
2018-May-21 02:23N 24°02' E 118°43'1212.9
2018-May-21 01:28N 24°11' E 118°53'813.2
2018-May-21 00:52N 24°17' E 118°59'513.2
2018-May-21 00:30N 24°20' E 119°02'  
2018-May-18 05:22N 35°59' E 120°31'612.9
2018-May-18 04:52N 36°00' E 120°23'5 9.9
2018-May-18 04:21N 36°02' E 120°17'410.9
2018-May-18 03:57N 36°05' E 120°14'1 0.0
2018-May-16 17:58N 36°04' E 120°13'0 0.0
2018-May-16 08:15N 36°04' E 120°13'0 0.0
2018-May-16 02:51N 36°04' E 120°13'0 0.0
2018-May-16 02:30N 36°04' E 120°13'3 3.7
2018-May-16 01:49N 36°02' E 120°16'4 8.5
2018-May-16 01:18N 36°01' E 120°21'5 3.3
2018-May-15 23:50N 35°58' E 120°26'0 0.1
2018-May-15 23:18N 35°59' E 120°26'0 0.0
2018-May-15 22:02N 35°58' E 120°26'0 0.1
2018-May-15 22:00N 35°58' E 120°26'1 0.7
2018-May-15 20:38N 35°59' E 120°25'1 4.2
2018-May-15 20:24N 35°60' E 120°24'3 5.7
2018-May-15 19:53N 36°00' E 120°27'  
Track history (hours):
 
Tides and Currents Weather Stations Pressure Air Temp Water Temp Dewpoint Dewpoint Depression Visibility Wind Speed Wind Dir Waves Ship Positions

Ye Chi

Last reported at 2018-May-21 09:22 UTC. Time now 2018-May-23 16:44 UTC.
Position N 23°01' E 117°35'.

Length 186 m; draft 10.4 m.

Type: Tanker. MMSI: 477621300.

Date/timePositionNaut miles runAvg speedWind from/ knotsBaromVisibWave heightAir tempDewpointWater temp
2018-May-21 09:22N 23°01' E 117°35'513.1
2018-May-21 08:59N 23°05' E 117°39'613.0
2018-May-21 08:30N 23°09' E 117°45'612.8
2018-May-21 08:00N 23°13' E 117°50'1112.5
2018-May-21 07:07N 23°21' E 117°58'212.1
2018-May-21 06:59N 23°22' E 117°59'612.1
2018-May-21 06:30N 23°27' E 118°04'612.2
2018-May-21 06:00N 23°31' E 118°08'812.2
2018-May-21 05:22N 23°37' E 118°14'512.4
2018-May-21 04:56N 23°41' E 118°18'612.5
2018-May-21 04:30N 23°44' E 118°23'612.4
2018-May-21 04:00N 23°48' E 118°28'2012.5
2018-May-21 02:23N 24°02' E 118°43'1212.9
2018-May-21 01:28N 24°11' E 118°53'813.2
2018-May-21 00:52N 24°17' E 118°59'513.2
2018-May-21 00:30N 24°20' E 119°02'  
2018-May-18 05:22N 35°59' E 120°31'612.9
2018-May-18 04:52N 36°00' E 120°23'5 9.9
2018-May-18 04:21N 36°02' E 120°17'410.9
2018-May-18 03:57N 36°05' E 120°14'1 0.0
2018-May-16 17:58N 36°04' E 120°13'0 0.0
2018-May-16 08:15N 36°04' E 120°13'0 0.0
2018-May-16 02:51N 36°04' E 120°13'0 0.0
2018-May-16 02:30N 36°04' E 120°13'3 3.7
2018-May-16 01:49N 36°02' E 120°16'4 8.5
2018-May-16 01:18N 36°01' E 120°21'5 3.3
2018-May-15 23:50N 35°58' E 120°26'0 0.1
2018-May-15 23:18N 35°59' E 120°26'0 0.0
2018-May-15 22:02N 35°58' E 120°26'0 0.1
2018-May-15 22:00N 35°58' E 120°26'1 0.7
2018-May-15 20:38N 35°59' E 120°25'1 4.2
2018-May-15 20:24N 35°60' E 120°24'3 5.7
2018-May-15 19:53N 36°00' E 120°27'  

Dump ship's entire track history